sensor_id;sensor_type;location;lat;lon;timestamp;temperature;humidity
78490;DHT22;67776;52.012;4.736;2023-04-24T00:01:10;9.42;94.29
78490;DHT22;67776;52.012;4.736;2023-04-24T00:03:38;9.44;94.03
78490;DHT22;67776;52.012;4.736;2023-04-24T00:06:04;9.46;94.16
78490;DHT22;67776;52.012;4.736;2023-04-24T00:08:30;9.43;94.41
78490;DHT22;67776;52.012;4.736;2023-04-24T00:10:55;9.39;93.96
78490;DHT22;67776;52.012;4.736;2023-04-24T00:13:21;9.44;94.38
78490;DHT22;67776;52.012;4.736;2023-04-24T00:15:46;9.47;94.56
78490;DHT22;67776;52.012;4.736;2023-04-24T00:18:12;9.44;94.40
78490;DHT22;67776;52.012;4.736;2023-04-24T00:20:37;9.44;94.32
78490;DHT22;67776;52.012;4.736;2023-04-24T00:23:03;9.43;94.11
78490;DHT22;67776;52.012;4.736;2023-04-24T00:25:28;9.44;94.43
78490;DHT22;67776;52.012;4.736;2023-04-24T00:27:53;9.47;94.75
78490;DHT22;67776;52.012;4.736;2023-04-24T00:30:19;9.47;94.70
78490;DHT22;67776;52.012;4.736;2023-04-24T00:32:44;9.50;94.87
78490;DHT22;67776;52.012;4.736;2023-04-24T00:35:09;9.50;94.61
78490;DHT22;67776;52.012;4.736;2023-04-24T00:37:35;9.51;94.69
78490;DHT22;67776;52.012;4.736;2023-04-24T00:40:01;9.49;94.77
78490;DHT22;67776;52.012;4.736;2023-04-24T00:42:26;9.46;94.61
78490;DHT22;67776;52.012;4.736;2023-04-24T00:44:52;9.47;94.71
78490;DHT22;67776;52.012;4.736;2023-04-24T00:47:18;9.46;94.63
78490;DHT22;67776;52.012;4.736;2023-04-24T00:49:44;9.49;94.49
78490;DHT22;67776;52.012;4.736;2023-04-24T00:52:09;9.51;94.64
78490;DHT22;67776;52.012;4.736;2023-04-24T00:54:35;9.47;94.67
78490;DHT22;67776;52.012;4.736;2023-04-24T00:57:02;9.49;94.75
78490;DHT22;67776;52.012;4.736;2023-04-24T00:59:28;9.46;94.96
78490;DHT22;67776;52.012;4.736;2023-04-24T01:01:55;9.43;94.74
78490;DHT22;67776;52.012;4.736;2023-04-24T01:04:21;9.40;94.19
78490;DHT22;67776;52.012;4.736;2023-04-24T01:06:47;9.42;94.56
78490;DHT22;67776;52.012;4.736;2023-04-24T01:09:14;9.44;94.46
78490;DHT22;67776;52.012;4.736;2023-04-24T01:11:41;9.40;94.29
78490;DHT22;67776;52.012;4.736;2023-04-24T01:14:07;9.39;94.41
78490;DHT22;67776;52.012;4.736;2023-04-24T01:16:32;9.40;94.82
78490;DHT22;67776;52.012;4.736;2023-04-24T01:18:58;9.35;94.21
78490;DHT22;67776;52.012;4.736;2023-04-24T01:21:26;9.36;94.14
78490;DHT22;67776;52.012;4.736;2023-04-24T01:23:55;9.36;94.56
78490;DHT22;67776;52.012;4.736;2023-04-24T01:26:21;9.33;94.59
78490;DHT22;67776;52.012;4.736;2023-04-24T01:28:47;9.33;94.63
78490;DHT22;67776;52.012;4.736;2023-04-24T01:31:13;9.35;94.72
78490;DHT22;67776;52.012;4.736;2023-04-24T01:33:41;9.36;94.63
78490;DHT22;67776;52.012;4.736;2023-04-24T01:36:07;9.38;94.72
78490;DHT22;67776;52.012;4.736;2023-04-24T01:38:33;9.32;94.70
78490;DHT22;67776;52.012;4.736;2023-04-24T01:40:58;9.35;94.56
78490;DHT22;67776;52.012;4.736;2023-04-24T01:43:24;9.35;94.61
78490;DHT22;67776;52.012;4.736;2023-04-24T01:45:50;9.32;94.49
78490;DHT22;67776;52.012;4.736;2023-04-24T01:48:15;9.32;94.38
78490;DHT22;67776;52.012;4.736;2023-04-24T01:50:41;9.32;94.45
78490;DHT22;67776;52.012;4.736;2023-04-24T01:53:06;9.30;94.22
78490;DHT22;67776;52.012;4.736;2023-04-24T01:55:31;9.36;94.44
78490;DHT22;67776;52.012;4.736;2023-04-24T01:57:57;9.32;94.48
78490;DHT22;67776;52.012;4.736;2023-04-24T02:00:24;9.29;94.21
78490;DHT22;67776;52.012;4.736;2023-04-24T02:02:50;9.25;94.67
78490;DHT22;67776;52.012;4.736;2023-04-24T02:05:15;9.23;94.24
78490;DHT22;67776;52.012;4.736;2023-04-24T02:07:40;9.26;94.56
78490;DHT22;67776;52.012;4.736;2023-04-24T02:10:06;9.25;94.29
78490;DHT22;67776;52.012;4.736;2023-04-24T02:12:31;9.25;94.16
78490;DHT22;67776;52.012;4.736;2023-04-24T02:14:57;9.25;94.37
78490;DHT22;67776;52.012;4.736;2023-04-24T02:17:22;9.25;94.57
78490;DHT22;67776;52.012;4.736;2023-04-24T02:19:48;9.25;94.25
78490;DHT22;67776;52.012;4.736;2023-04-24T02:22:13;9.25;94.42
78490;DHT22;67776;52.012;4.736;2023-04-24T02:24:39;9.22;94.55
78490;DHT22;67776;52.012;4.736;2023-04-24T02:27:04;9.21;94.42
78490;DHT22;67776;52.012;4.736;2023-04-24T02:29:30;9.19;94.69
78490;DHT22;67776;52.012;4.736;2023-04-24T02:31:55;9.23;94.82
78490;DHT22;67776;52.012;4.736;2023-04-24T02:34:20;9.22;94.48
78490;DHT22;67776;52.012;4.736;2023-04-24T02:36:46;9.21;94.94
78490;DHT22;67776;52.012;4.736;2023-04-24T02:39:11;9.21;94.73
78490;DHT22;67776;52.012;4.736;2023-04-24T02:41:38;9.19;94.52
78490;DHT22;67776;52.012;4.736;2023-04-24T02:44:03;9.18;94.85
78490;DHT22;67776;52.012;4.736;2023-04-24T02:46:29;9.15;94.69
78490;DHT22;67776;52.012;4.736;2023-04-24T02:48:54;9.18;94.62
78490;DHT22;67776;52.012;4.736;2023-04-24T02:51:19;9.15;94.74
78490;DHT22;67776;52.012;4.736;2023-04-24T02:53:45;9.15;94.43
78490;DHT22;67776;52.012;4.736;2023-04-24T02:56:10;9.12;94.65
78490;DHT22;67776;52.012;4.736;2023-04-24T02:58:37;9.14;94.49
78490;DHT22;67776;52.012;4.736;2023-04-24T03:01:03;9.12;94.59
78490;DHT22;67776;52.012;4.736;2023-04-24T03:03:28;9.19;94.67
78490;DHT22;67776;52.012;4.736;2023-04-24T03:05:53;9.14;94.91
78490;DHT22;67776;52.012;4.736;2023-04-24T03:08:20;9.15;94.80
78490;DHT22;67776;52.012;4.736;2023-04-24T03:10:45;9.11;95.24
78490;DHT22;67776;52.012;4.736;2023-04-24T03:13:11;9.08;94.98
78490;DHT22;67776;52.012;4.736;2023-04-24T03:15:36;9.08;94.94
78490;DHT22;67776;52.012;4.736;2023-04-24T03:18:01;9.07;94.64
78490;DHT22;67776;52.012;4.736;2023-04-24T03:20:28;9.01;93.83
78490;DHT22;67776;52.012;4.736;2023-04-24T03:22:53;8.98;93.32
78490;DHT22;67776;52.012;4.736;2023-04-24T03:25:18;8.94;93.34
78490;DHT22;67776;52.012;4.736;2023-04-24T03:27:44;8.85;93.24
78490;DHT22;67776;52.012;4.736;2023-04-24T03:30:10;8.83;93.05
78490;DHT22;67776;52.012;4.736;2023-04-24T03:32:35;8.81;93.03
78490;DHT22;67776;52.012;4.736;2023-04-24T03:35:00;8.80;93.37
78490;DHT22;67776;52.012;4.736;2023-04-24T03:37:27;8.76;93.85
78490;DHT22;67776;52.012;4.736;2023-04-24T03:39:52;8.74;93.55
78490;DHT22;67776;52.012;4.736;2023-04-24T03:42:18;8.71;93.35
78490;DHT22;67776;52.012;4.736;2023-04-24T03:44:43;8.71;93.37
78490;DHT22;67776;52.012;4.736;2023-04-24T03:47:08;8.73;94.11
78490;DHT22;67776;52.012;4.736;2023-04-24T03:49:34;8.70;93.31
78490;DHT22;67776;52.012;4.736;2023-04-24T03:51:59;8.73;93.60
78490;DHT22;67776;52.012;4.736;2023-04-24T03:54:24;8.73;94.08
78490;DHT22;67776;52.012;4.736;2023-04-24T03:56:50;8.77;94.45
78490;DHT22;67776;52.012;4.736;2023-04-24T03:59:16;8.74;94.25
78490;DHT22;67776;52.012;4.736;2023-04-24T04:01:41;8.81;94.15
78490;DHT22;67776;52.012;4.736;2023-04-24T04:04:06;8.78;93.91
78490;DHT22;67776;52.012;4.736;2023-04-24T04:06:33;8.77;93.94
78490;DHT22;67776;52.012;4.736;2023-04-24T04:08:58;8.74;93.79
78490;DHT22;67776;52.012;4.736;2023-04-24T04:11:24;8.76;94.02
78490;DHT22;67776;52.012;4.736;2023-04-24T04:13:49;8.76;94.07
78490;DHT22;67776;52.012;4.736;2023-04-24T04:16:15;8.76;94.54
78490;DHT22;67776;52.012;4.736;2023-04-24T04:18:44;8.74;94.39
78490;DHT22;67776;52.012;4.736;2023-04-24T04:21:09;8.71;94.26
78490;DHT22;67776;52.012;4.736;2023-04-24T04:23:35;8.73;94.15
78490;DHT22;67776;52.012;4.736;2023-04-24T04:26:01;8.70;94.01
78490;DHT22;67776;52.012;4.736;2023-04-24T04:28:26;8.70;94.08
78490;DHT22;67776;52.012;4.736;2023-04-24T04:30:52;8.70;94.17
78490;DHT22;67776;52.012;4.736;2023-04-24T04:33:21;8.74;94.47
78490;DHT22;67776;52.012;4.736;2023-04-24T04:35:46;8.68;94.70
78490;DHT22;67776;52.012;4.736;2023-04-24T04:38:15;8.70;94.72
78490;DHT22;67776;52.012;4.736;2023-04-24T04:40:42;8.71;94.64
78490;DHT22;67776;52.012;4.736;2023-04-24T04:43:07;8.73;94.32
78490;DHT22;67776;52.012;4.736;2023-04-24T04:45:33;8.74;94.43
78490;DHT22;67776;52.012;4.736;2023-04-24T04:47:59;8.73;94.28
78490;DHT22;67776;52.012;4.736;2023-04-24T04:50:28;8.71;94.49
78490;DHT22;67776;52.012;4.736;2023-04-24T04:52:54;8.73;94.47
78490;DHT22;67776;52.012;4.736;2023-04-24T04:55:19;8.74;94.52
78490;DHT22;67776;52.012;4.736;2023-04-24T04:57:45;8.71;94.65
78490;DHT22;67776;52.012;4.736;2023-04-24T05:00:11;8.74;95.21
78490;DHT22;67776;52.012;4.736;2023-04-24T05:02:37;8.71;95.10
78490;DHT22;67776;52.012;4.736;2023-04-24T05:05:02;8.70;95.39
78490;DHT22;67776;52.012;4.736;2023-04-24T05:07:28;8.74;95.50
78490;DHT22;67776;52.012;4.736;2023-04-24T05:09:53;8.80;95.39
78490;DHT22;67776;52.012;4.736;2023-04-24T05:12:18;8.85;95.23
78490;DHT22;67776;52.012;4.736;2023-04-24T05:14:44;8.91;95.37
78490;DHT22;67776;52.012;4.736;2023-04-24T05:17:09;8.94;95.18
78490;DHT22;67776;52.012;4.736;2023-04-24T05:19:35;8.97;95.09
78490;DHT22;67776;52.012;4.736;2023-04-24T05:22:02;8.92;94.97
78490;DHT22;67776;52.012;4.736;2023-04-24T05:24:29;8.92;94.65
78490;DHT22;67776;52.012;4.736;2023-04-24T05:26:54;8.95;95.12
78490;DHT22;67776;52.012;4.736;2023-04-24T05:29:20;8.89;94.75
78490;DHT22;67776;52.012;4.736;2023-04-24T05:31:46;8.85;94.46
78490;DHT22;67776;52.012;4.736;2023-04-24T05:34:11;8.85;94.52
78490;DHT22;67776;52.012;4.736;2023-04-24T05:36:37;8.80;94.07
78490;DHT22;67776;52.012;4.736;2023-04-24T05:39:02;8.76;93.74
78490;DHT22;67776;52.012;4.736;2023-04-24T05:41:30;8.71;93.96
78490;DHT22;67776;52.012;4.736;2023-04-24T05:43:55;8.68;93.82
78490;DHT22;67776;52.012;4.736;2023-04-24T05:46:20;8.68;94.07
78490;DHT22;67776;52.012;4.736;2023-04-24T05:48:46;8.64;94.15
78490;DHT22;67776;52.012;4.736;2023-04-24T05:51:11;8.64;94.09
78490;DHT22;67776;52.012;4.736;2023-04-24T05:53:36;8.61;93.84
78490;DHT22;67776;52.012;4.736;2023-04-24T05:56:02;8.61;94.09
78490;DHT22;67776;52.012;4.736;2023-04-24T05:58:27;8.59;93.88
78490;DHT22;67776;52.012;4.736;2023-04-24T06:00:52;8.57;92.55
78490;DHT22;67776;52.012;4.736;2023-04-24T06:03:18;8.50;92.34
78490;DHT22;67776;52.012;4.736;2023-04-24T06:05:43;8.49;92.52
78490;DHT22;67776;52.012;4.736;2023-04-24T06:08:09;8.49;93.17
78490;DHT22;67776;52.012;4.736;2023-04-24T06:10:34;8.47;93.33
78490;DHT22;67776;52.012;4.736;2023-04-24T06:13:00;8.43;93.41
78490;DHT22;67776;52.012;4.736;2023-04-24T06:15:28;8.45;93.28
78490;DHT22;67776;52.012;4.736;2023-04-24T06:17:53;8.46;93.05
78490;DHT22;67776;52.012;4.736;2023-04-24T06:20:19;8.46;93.39
78490;DHT22;67776;52.012;4.736;2023-04-24T06:22:44;8.45;93.76
78490;DHT22;67776;52.012;4.736;2023-04-24T06:25:09;8.46;93.45
78490;DHT22;67776;52.012;4.736;2023-04-24T06:27:35;8.46;93.60
78490;DHT22;67776;52.012;4.736;2023-04-24T06:30:01;8.46;93.29
78490;DHT22;67776;52.012;4.736;2023-04-24T06:32:27;8.47;93.57
78490;DHT22;67776;52.012;4.736;2023-04-24T06:34:52;8.47;93.66
78490;DHT22;67776;52.012;4.736;2023-04-24T06:37:19;8.46;93.47
78490;DHT22;67776;52.012;4.736;2023-04-24T06:39:44;8.46;93.92
78490;DHT22;67776;52.012;4.736;2023-04-24T06:42:10;8.49;93.76
78490;DHT22;67776;52.012;4.736;2023-04-24T06:44:35;8.50;93.76
78490;DHT22;67776;52.012;4.736;2023-04-24T06:47:08;8.54;93.80
78490;DHT22;67776;52.012;4.736;2023-04-24T06:49:35;8.53;92.72
78490;DHT22;67776;52.012;4.736;2023-04-24T06:52:00;8.56;92.83
78490;DHT22;67776;52.012;4.736;2023-04-24T06:54:26;8.57;93.16
78490;DHT22;67776;52.012;4.736;2023-04-24T06:56:52;8.61;92.60
78490;DHT22;67776;52.012;4.736;2023-04-24T06:59:17;8.59;92.60
78490;DHT22;67776;52.012;4.736;2023-04-24T07:01:42;8.59;93.05
78490;DHT22;67776;52.012;4.736;2023-04-24T07:04:08;8.54;92.28
78490;DHT22;67776;52.012;4.736;2023-04-24T07:06:33;8.56;92.59
78490;DHT22;67776;52.012;4.736;2023-04-24T07:09:00;8.56;91.95
78490;DHT22;67776;52.012;4.736;2023-04-24T07:11:26;8.53;91.77
78490;DHT22;67776;52.012;4.736;2023-04-24T07:13:54;8.53;91.83
78490;DHT22;67776;52.012;4.736;2023-04-24T07:16:19;8.54;91.38
78490;DHT22;67776;52.012;4.736;2023-04-24T07:18:45;8.47;91.70
78490;DHT22;67776;52.012;4.736;2023-04-24T07:21:10;8.36;91.63
78490;DHT22;67776;52.012;4.736;2023-04-24T07:23:36;8.36;92.31
78490;DHT22;67776;52.012;4.736;2023-04-24T07:26:02;8.38;92.67
78490;DHT22;67776;52.012;4.736;2023-04-24T07:28:27;8.35;92.34
78490;DHT22;67776;52.012;4.736;2023-04-24T07:30:56;8.42;92.63
78490;DHT22;67776;52.012;4.736;2023-04-24T07:33:21;8.40;91.90
78490;DHT22;67776;52.012;4.736;2023-04-24T07:35:46;8.46;91.76
78490;DHT22;67776;52.012;4.736;2023-04-24T07:38:12;8.50;91.15
78490;DHT22;67776;52.012;4.736;2023-04-24T07:40:37;8.45;90.10
78490;DHT22;67776;52.012;4.736;2023-04-24T07:43:03;8.49;90.86
78490;DHT22;67776;52.012;4.736;2023-04-24T07:45:28;8.53;90.45
78490;DHT22;67776;52.012;4.736;2023-04-24T07:47:53;8.53;91.08
78490;DHT22;67776;52.012;4.736;2023-04-24T07:50:19;8.54;89.62
78490;DHT22;67776;52.012;4.736;2023-04-24T07:52:45;8.59;90.07
78490;DHT22;67776;52.012;4.736;2023-04-24T07:55:10;8.61;90.12
78490;DHT22;67776;52.012;4.736;2023-04-24T07:57:36;8.60;87.93
78490;DHT22;67776;52.012;4.736;2023-04-24T08:00:03;8.67;89.40
78490;DHT22;67776;52.012;4.736;2023-04-24T08:02:28;8.68;87.27
78490;DHT22;67776;52.012;4.736;2023-04-24T08:04:54;8.74;87.61
78490;DHT22;67776;52.012;4.736;2023-04-24T08:07:20;8.70;87.80
78490;DHT22;67776;52.012;4.736;2023-04-24T08:09:45;8.63;88.58
78490;DHT22;67776;52.012;4.736;2023-04-24T08:12:11;8.57;89.65
78490;DHT22;67776;52.012;4.736;2023-04-24T08:14:36;8.54;86.90
78490;DHT22;67776;52.012;4.736;2023-04-24T08:17:01;8.50;87.02
78490;DHT22;67776;52.012;4.736;2023-04-24T08:19:27;8.47;87.52
78490;DHT22;67776;52.012;4.736;2023-04-24T08:21:53;8.45;86.26
78490;DHT22;67776;52.012;4.736;2023-04-24T08:24:18;8.50;86.20
78490;DHT22;67776;52.012;4.736;2023-04-24T08:26:43;8.50;86.92
78490;DHT22;67776;52.012;4.736;2023-04-24T08:29:09;8.53;86.96
78490;DHT22;67776;52.012;4.736;2023-04-24T08:31:34;8.59;86.68
78490;DHT22;67776;52.012;4.736;2023-04-24T08:34:00;8.64;85.43
78490;DHT22;67776;52.012;4.736;2023-04-24T08:36:26;8.74;84.29
78490;DHT22;67776;52.012;4.736;2023-04-24T08:38:52;8.83;82.27
78490;DHT22;67776;52.012;4.736;2023-04-24T08:41:18;8.87;82.69
78490;DHT22;67776;52.012;4.736;2023-04-24T08:43:46;8.87;81.96
78490;DHT22;67776;52.012;4.736;2023-04-24T08:46:12;8.92;83.46
78490;DHT22;67776;52.012;4.736;2023-04-24T08:48:38;8.94;81.13
78490;DHT22;67776;52.012;4.736;2023-04-24T08:51:07;8.87;78.42
78490;DHT22;67776;52.012;4.736;2023-04-24T08:53:32;8.91;80.78
78490;DHT22;67776;52.012;4.736;2023-04-24T08:55:58;8.88;80.30
78490;DHT22;67776;52.012;4.736;2023-04-24T08:58:27;8.84;79.43
78490;DHT22;67776;52.012;4.736;2023-04-24T09:00:56;8.78;79.78
78490;DHT22;67776;52.012;4.736;2023-04-24T09:03:22;8.73;79.72
78490;DHT22;67776;52.012;4.736;2023-04-24T09:05:49;8.64;80.44
78490;DHT22;67776;52.012;4.736;2023-04-24T09:08:17;8.56;82.32
78490;DHT22;67776;52.012;4.736;2023-04-24T09:10:43;8.66;82.58
78490;DHT22;67776;52.012;4.736;2023-04-24T09:13:08;8.84;82.67
78490;DHT22;67776;52.012;4.736;2023-04-24T09:15:35;8.97;82.03
78490;DHT22;67776;52.012;4.736;2023-04-24T09:18:03;9.04;81.06
78490;DHT22;67776;52.012;4.736;2023-04-24T09:20:33;9.11;82.06
78490;DHT22;67776;52.012;4.736;2023-04-24T09:22:58;9.14;81.63
78490;DHT22;67776;52.012;4.736;2023-04-24T09:25:34;9.10;80.62
78490;DHT22;67776;52.012;4.736;2023-04-24T09:28:04;8.95;79.03
78490;DHT22;67776;52.012;4.736;2023-04-24T09:30:31;8.71;79.25
78490;DHT22;67776;52.012;4.736;2023-04-24T09:33:13;8.64;82.17
78490;DHT22;67776;52.012;4.736;2023-04-24T09:35:49;8.61;80.19
78490;DHT22;67776;52.012;4.736;2023-04-24T09:38:15;8.74;79.22
78490;DHT22;67776;52.012;4.736;2023-04-24T09:40:40;8.94;80.34
78490;DHT22;67776;52.012;4.736;2023-04-24T09:43:10;8.92;79.60
78490;DHT22;67776;52.012;4.736;2023-04-24T09:45:37;8.95;79.06
78490;DHT22;67776;52.012;4.736;2023-04-24T09:48:03;9.01;78.93
78490;DHT22;67776;52.012;4.736;2023-04-24T09:50:30;9.02;79.21
78490;DHT22;67776;52.012;4.736;2023-04-24T09:53:04;9.21;79.31
78490;DHT22;67776;52.012;4.736;2023-04-24T09:55:31;9.40;79.40
78490;DHT22;67776;52.012;4.736;2023-04-24T09:57:58;9.59;78.64
78490;DHT22;67776;52.012;4.736;2023-04-24T10:00:30;9.54;77.74
78490;DHT22;67776;52.012;4.736;2023-04-24T10:03:00;9.60;78.59
78490;DHT22;67776;52.012;4.736;2023-04-24T10:05:31;9.57;77.43
78490;DHT22;67776;52.012;4.736;2023-04-24T10:08:11;9.50;78.26
78490;DHT22;67776;52.012;4.736;2023-04-24T10:10:42;9.33;76.09
78490;DHT22;67776;52.012;4.736;2023-04-24T10:13:12;9.33;79.89
78490;DHT22;67776;52.012;4.736;2023-04-24T10:15:38;9.32;77.37
78490;DHT22;67776;52.012;4.736;2023-04-24T10:18:04;9.08;78.71
78490;DHT22;67776;52.012;4.736;2023-04-24T10:20:32;8.76;80.95
78490;DHT22;67776;52.012;4.736;2023-04-24T10:22:58;8.64;82.04
78490;DHT22;67776;52.012;4.736;2023-04-24T10:25:26;8.68;81.05
78490;DHT22;67776;52.012;4.736;2023-04-24T10:27:53;8.78;80.49
78490;DHT22;67776;52.012;4.736;2023-04-24T10:30:22;9.02;78.89
78490;DHT22;67776;52.012;4.736;2023-04-24T10:32:47;9.32;80.29
78490;DHT22;67776;52.012;4.736;2023-04-24T10:35:13;9.26;80.04
78490;DHT22;67776;52.012;4.736;2023-04-24T10:37:45;9.32;78.35
78490;DHT22;67776;52.012;4.736;2023-04-24T10:40:17;9.42;77.01
78490;DHT22;67776;52.012;4.736;2023-04-24T10:42:47;9.54;75.51
78490;DHT22;67776;52.012;4.736;2023-04-24T10:45:23;9.64;75.22
78490;DHT22;67776;52.012;4.736;2023-04-24T10:47:58;9.61;74.62
78490;DHT22;67776;52.012;4.736;2023-04-24T10:50:26;9.85;75.74
78490;DHT22;67776;52.012;4.736;2023-04-24T10:52:52;10.39;74.02
78490;DHT22;67776;52.012;4.736;2023-04-24T10:55:42;11.16;72.88
78490;DHT22;67776;52.012;4.736;2023-04-24T10:58:08;11.01;72.75
78490;DHT22;67776;52.012;4.736;2023-04-24T11:00:37;10.68;73.78
78490;DHT22;67776;52.012;4.736;2023-04-24T11:03:09;10.28;75.76
78490;DHT22;67776;52.012;4.736;2023-04-24T11:05:57;10.02;77.48
78490;DHT22;67776;52.012;4.736;2023-04-24T11:08:25;9.99;79.54
78490;DHT22;67776;52.012;4.736;2023-04-24T11:10:58;9.73;78.35
78490;DHT22;67776;52.012;4.736;2023-04-24T11:13:25;9.93;78.94
78490;DHT22;67776;52.012;4.736;2023-04-24T11:16:52;9.81;78.94
78490;DHT22;67776;52.012;4.736;2023-04-24T11:19:08;9.91;79.47
78490;DHT22;67776;52.012;4.736;2023-04-24T11:24:23;11.07;75.94
78490;DHT22;67776;52.012;4.736;2023-04-24T11:26:48;11.70;73.44
78490;DHT22;67776;52.012;4.736;2023-04-24T11:29:13;12.39;68.59
78490;DHT22;67776;52.012;4.736;2023-04-24T11:31:40;12.48;66.71
78490;DHT22;67776;52.012;4.736;2023-04-24T11:34:13;12.55;66.53
78490;DHT22;67776;52.012;4.736;2023-04-24T11:36:42;12.42;67.45
78490;DHT22;67776;52.012;4.736;2023-04-24T11:39:07;12.33;67.33
78490;DHT22;67776;52.012;4.736;2023-04-24T11:41:34;12.04;69.07
78490;DHT22;67776;52.012;4.736;2023-04-24T11:44:00;11.36;68.36
78490;DHT22;67776;52.012;4.736;2023-04-24T11:46:27;11.73;70.56
78490;DHT22;67776;52.012;4.736;2023-04-24T11:48:54;11.87;70.29
78490;DHT22;67776;52.012;4.736;2023-04-24T11:51:19;11.52;68.85
78490;DHT22;67776;52.012;4.736;2023-04-24T11:53:44;11.35;68.42
78490;DHT22;67776;52.012;4.736;2023-04-24T11:56:10;10.97;69.03
78490;DHT22;67776;52.012;4.736;2023-04-24T11:58:37;11.16;68.35
78490;DHT22;67776;52.012;4.736;2023-04-24T12:01:03;11.66;71.07
78490;DHT22;67776;52.012;4.736;2023-04-24T12:03:32;11.35;68.37
78490;DHT22;67776;52.012;4.736;2023-04-24T12:06:11;11.33;68.65
78490;DHT22;67776;52.012;4.736;2023-04-24T12:08:37;11.99;68.71
78490;DHT22;67776;52.012;4.736;2023-04-24T12:11:04;12.31;66.58
78490;DHT22;67776;52.012;4.736;2023-04-24T12:13:32;11.76;65.91
78490;DHT22;67776;52.012;4.736;2023-04-24T12:15:58;11.63;68.20
78490;DHT22;67776;52.012;4.736;2023-04-24T12:18:24;11.57;68.40
78490;DHT22;67776;52.012;4.736;2023-04-24T12:20:49;11.93;66.81
78490;DHT22;67776;52.012;4.736;2023-04-24T12:23:15;12.10;67.00
78490;DHT22;67776;52.012;4.736;2023-04-24T12:25:40;12.21;66.99
78490;DHT22;67776;52.012;4.736;2023-04-24T12:30:33;11.56;67.53
78490;DHT22;67776;52.012;4.736;2023-04-24T12:32:59;11.26;66.51
78490;DHT22;67776;52.012;4.736;2023-04-24T12:35:27;10.91;67.75
78490;DHT22;67776;52.012;4.736;2023-04-24T12:37:53;11.04;72.12
78490;DHT22;67776;52.012;4.736;2023-04-24T12:40:19;11.14;69.36
78490;DHT22;67776;52.012;4.736;2023-04-24T12:42:46;11.50;70.23
78490;DHT22;67776;52.012;4.736;2023-04-24T12:45:13;11.15;67.83
78490;DHT22;67776;52.012;4.736;2023-04-24T12:47:40;11.14;67.89
78490;DHT22;67776;52.012;4.736;2023-04-24T12:50:07;11.36;67.83
78490;DHT22;67776;52.012;4.736;2023-04-24T12:52:32;11.57;67.80
78490;DHT22;67776;52.012;4.736;2023-04-24T12:54:59;11.94;66.95
78490;DHT22;67776;52.012;4.736;2023-04-24T12:57:27;11.95;65.43
78490;DHT22;67776;52.012;4.736;2023-04-24T12:59:57;12.52;66.87
78490;DHT22;67776;52.012;4.736;2023-04-24T13:02:23;13.08;65.56
78490;DHT22;67776;52.012;4.736;2023-04-24T13:04:50;13.16;62.77
78490;DHT22;67776;52.012;4.736;2023-04-24T13:07:16;13.71;58.60
78490;DHT22;67776;52.012;4.736;2023-04-24T13:09:44;12.79;60.64
78490;DHT22;67776;52.012;4.736;2023-04-24T13:12:11;12.83;59.78
78490;DHT22;67776;52.012;4.736;2023-04-24T13:14:37;13.48;57.51
78490;DHT22;67776;52.012;4.736;2023-04-24T13:17:02;12.80;58.99
78490;DHT22;67776;52.012;4.736;2023-04-24T13:19:28;12.36;60.72
78490;DHT22;67776;52.012;4.736;2023-04-24T13:21:55;13.43;59.41
78490;DHT22;67776;52.012;4.736;2023-04-24T13:24:21;13.70;59.66
78490;DHT22;67776;52.012;4.736;2023-04-24T13:26:50;13.36;60.33
78490;DHT22;67776;52.012;4.736;2023-04-24T13:29:16;12.72;63.38
78490;DHT22;67776;52.012;4.736;2023-04-24T13:31:41;12.15;62.72
78490;DHT22;67776;52.012;4.736;2023-04-24T13:34:07;11.99;63.21
78490;DHT22;67776;52.012;4.736;2023-04-24T13:36:32;13.10;60.40
78490;DHT22;67776;52.012;4.736;2023-04-24T13:38:58;14.36;56.93
78490;DHT22;67776;52.012;4.736;2023-04-24T13:41:23;14.21;61.68
78490;DHT22;67776;52.012;4.736;2023-04-24T13:43:49;13.45;56.75
78490;DHT22;67776;52.012;4.736;2023-04-24T13:46:14;12.80;59.44
78490;DHT22;67776;52.012;4.736;2023-04-24T13:48:40;12.46;58.90
78490;DHT22;67776;52.012;4.736;2023-04-24T13:51:05;13.32;60.15
78490;DHT22;67776;52.012;4.736;2023-04-24T13:53:30;14.03;54.98
78490;DHT22;67776;52.012;4.736;2023-04-24T13:55:55;12.90;55.62
78490;DHT22;67776;52.012;4.736;2023-04-24T13:58:21;12.42;58.22
78490;DHT22;67776;52.012;4.736;2023-04-24T14:00:46;12.40;62.13
78490;DHT22;67776;52.012;4.736;2023-04-24T14:03:11;11.81;59.61
78490;DHT22;67776;52.012;4.736;2023-04-24T14:05:37;11.86;61.92
78490;DHT22;67776;52.012;4.736;2023-04-24T14:08:02;11.76;63.54
78490;DHT22;67776;52.012;4.736;2023-04-24T14:10:27;11.83;60.65
78490;DHT22;67776;52.012;4.736;2023-04-24T14:12:53;12.15;62.02
78490;DHT22;67776;52.012;4.736;2023-04-24T14:15:18;12.11;60.13
78490;DHT22;67776;52.012;4.736;2023-04-24T14:17:44;11.73;63.07
78490;DHT22;67776;52.012;4.736;2023-04-24T14:20:10;11.53;62.37
78490;DHT22;67776;52.012;4.736;2023-04-24T14:22:35;11.12;66.33
78490;DHT22;67776;52.012;4.736;2023-04-24T14:25:01;10.57;71.17
78490;DHT22;67776;52.012;4.736;2023-04-24T14:27:26;10.21;75.87
78490;DHT22;67776;52.012;4.736;2023-04-24T14:29:52;9.69;75.90
78490;DHT22;67776;52.012;4.736;2023-04-24T14:32:17;9.64;77.86
78490;DHT22;67776;52.012;4.736;2023-04-24T14:34:42;10.38;78.10
78490;DHT22;67776;52.012;4.736;2023-04-24T14:37:08;10.38;75.13
78490;DHT22;67776;52.012;4.736;2023-04-24T14:39:33;10.49;73.39
78490;DHT22;67776;52.012;4.736;2023-04-24T14:42:00;10.59;74.25
78490;DHT22;67776;52.012;4.736;2023-04-24T14:44:26;10.63;73.00
78490;DHT22;67776;52.012;4.736;2023-04-24T14:46:52;10.66;72.33
78490;DHT22;67776;52.012;4.736;2023-04-24T14:49:17;10.61;73.02
78490;DHT22;67776;52.012;4.736;2023-04-24T14:51:42;10.78;72.69
78490;DHT22;67776;52.012;4.736;2023-04-24T14:54:08;10.56;72.52
78490;DHT22;67776;52.012;4.736;2023-04-24T14:56:34;10.87;70.35
78490;DHT22;67776;52.012;4.736;2023-04-24T14:58:59;10.87;71.08
78490;DHT22;67776;52.012;4.736;2023-04-24T15:01:24;11.08;69.10
78490;DHT22;67776;52.012;4.736;2023-04-24T15:03:50;11.14;70.24
78490;DHT22;67776;52.012;4.736;2023-04-24T15:06:15;10.91;70.22
78490;DHT22;67776;52.012;4.736;2023-04-24T15:08:41;11.55;69.11
78490;DHT22;67776;52.012;4.736;2023-04-24T15:11:07;11.60;68.65
78490;DHT22;67776;52.012;4.736;2023-04-24T15:13:32;11.46;65.62
78490;DHT22;67776;52.012;4.736;2023-04-24T15:15:58;11.25;65.93
78490;DHT22;67776;52.012;4.736;2023-04-24T15:18:23;11.21;66.65
78490;DHT22;67776;52.012;4.736;2023-04-24T15:20:48;10.88;66.78
78490;DHT22;67776;52.012;4.736;2023-04-24T15:23:14;11.08;66.62
78490;DHT22;67776;52.012;4.736;2023-04-24T15:25:39;11.10;66.15
78490;DHT22;67776;52.012;4.736;2023-04-24T15:28:05;11.16;66.80
78490;DHT22;67776;52.012;4.736;2023-04-24T15:30:31;11.04;65.89
78490;DHT22;67776;52.012;4.736;2023-04-24T15:32:56;10.76;68.34
78490;DHT22;67776;52.012;4.736;2023-04-24T15:35:22;10.73;68.82
78490;DHT22;67776;52.012;4.736;2023-04-24T15:37:47;10.43;74.73
78490;DHT22;67776;52.012;4.736;2023-04-24T15:40:13;10.32;73.39
78490;DHT22;67776;52.012;4.736;2023-04-24T15:42:41;10.94;72.64